sensor_id;sensor_type;location;lat;lon;timestamp;P1;durP1;ratioP1;P2;durP2;ratioP2
27303;SDS011;14791;52.392;13.092;2022-12-07T00:01:44;4.30;;;4.20;;
27303;SDS011;14791;52.392;13.092;2022-12-07T00:04:15;4.23;;;4.03;;
27303;SDS011;14791;52.392;13.092;2022-12-07T00:06:46;4.23;;;4.13;;
27303;SDS011;14791;52.392;13.092;2022-12-07T00:09:18;4.50;;;4.40;;
27303;SDS011;14791;52.392;13.092;2022-12-07T00:11:50;4.30;;;4.20;;
27303;SDS011;14791;52.392;13.092;2022-12-07T00:14:19;4.03;;;3.90;;
27303;SDS011;14791;52.392;13.092;2022-12-07T00:16:50;3.93;;;3.83;;
27303;SDS011;14791;52.392;13.092;2022-12-07T00:19:19;3.67;;;3.57;;
27303;SDS011;14791;52.392;13.092;2022-12-07T00:21:48;4.30;;;4.20;;
27303;SDS011;14791;52.392;13.092;2022-12-07T00:24:17;3.77;;;3.67;;
27303;SDS011;14791;52.392;13.092;2022-12-07T00:26:46;3.70;;;3.60;;
27303;SDS011;14791;52.392;13.092;2022-12-07T00:29:16;3.13;;;3.03;;
27303;SDS011;14791;52.392;13.092;2022-12-07T00:31:50;3.47;;;3.37;;
27303;SDS011;14791;52.392;13.092;2022-12-07T00:34:20;3.40;;;3.30;;
27303;SDS011;14791;52.392;13.092;2022-12-07T00:36:49;3.40;;;3.30;;
27303;SDS011;14791;52.392;13.092;2022-12-07T00:39:18;3.53;;;3.43;;
27303;SDS011;14791;52.392;13.092;2022-12-07T00:41:47;3.70;;;3.60;;
27303;SDS011;14791;52.392;13.092;2022-12-07T00:44:16;3.27;;;3.17;;
27303;SDS011;14791;52.392;13.092;2022-12-07T00:46:45;3.47;;;3.37;;
27303;SDS011;14791;52.392;13.092;2022-12-07T00:49:14;3.83;;;3.63;;
27303;SDS011;14791;52.392;13.092;2022-12-07T00:51:42;3.70;;;3.50;;
27303;SDS011;14791;52.392;13.092;2022-12-07T00:54:11;2.67;;;2.60;;
27303;SDS011;14791;52.392;13.092;2022-12-07T00:56:40;3.50;;;3.40;;
27303;SDS011;14791;52.392;13.092;2022-12-07T00:59:10;3.10;;;2.90;;
27303;SDS011;14791;52.392;13.092;2022-12-07T01:01:42;2.90;;;2.70;;
27303;SDS011;14791;52.392;13.092;2022-12-07T01:04:10;3.13;;;3.03;;
27303;SDS011;14791;52.392;13.092;2022-12-07T01:06:39;3.20;;;3.10;;
27303;SDS011;14791;52.392;13.092;2022-12-07T01:09:08;2.70;;;2.60;;
27303;SDS011;14791;52.392;13.092;2022-12-07T01:11:37;2.97;;;2.87;;
27303;SDS011;14791;52.392;13.092;2022-12-07T01:14:06;2.97;;;2.87;;
27303;SDS011;14791;52.392;13.092;2022-12-07T01:16:36;2.70;;;2.60;;
27303;SDS011;14791;52.392;13.092;2022-12-07T01:19:07;3.03;;;2.93;;
27303;SDS011;14791;52.392;13.092;2022-12-07T01:21:36;2.77;;;2.67;;
27303;SDS011;14791;52.392;13.092;2022-12-07T01:24:07;2.93;;;2.83;;
27303;SDS011;14791;52.392;13.092;2022-12-07T01:26:37;2.50;;;2.40;;
27303;SDS011;14791;52.392;13.092;2022-12-07T01:29:06;2.70;;;2.60;;
27303;SDS011;14791;52.392;13.092;2022-12-07T01:31:35;2.57;;;2.47;;
27303;SDS011;14791;52.392;13.092;2022-12-07T01:34:04;2.87;;;2.77;;
27303;SDS011;14791;52.392;13.092;2022-12-07T01:36:34;2.47;;;2.37;;
27303;SDS011;14791;52.392;13.092;2022-12-07T01:39:05;2.97;;;2.77;;
27303;SDS011;14791;52.392;13.092;2022-12-07T01:41:36;2.40;;;2.20;;
27303;SDS011;14791;52.392;13.092;2022-12-07T01:46:52;2.63;;;2.53;;
27303;SDS011;14791;52.392;13.092;2022-12-07T01:52:24;2.07;;;2.07;;
27303;SDS011;14791;52.392;13.092;2022-12-07T01:54:35;2.57;;;2.47;;
27303;SDS011;14791;52.392;13.092;2022-12-07T01:57:04;2.20;;;2.20;;
27303;SDS011;14791;52.392;13.092;2022-12-07T01:59:35;2.50;;;2.43;;
27303;SDS011;14791;52.392;13.092;2022-12-07T02:02:07;2.20;;;2.20;;
27303;SDS011;14791;52.392;13.092;2022-12-07T02:04:37;2.30;;;2.30;;
27303;SDS011;14791;52.392;13.092;2022-12-07T02:07:06;1.97;;;1.97;;
27303;SDS011;14791;52.392;13.092;2022-12-07T02:09:35;2.10;;;2.10;;
27303;SDS011;14791;52.392;13.092;2022-12-07T02:12:04;2.23;;;2.23;;
27303;SDS011;14791;52.392;13.092;2022-12-07T02:14:33;2.23;;;2.13;;
27303;SDS011;14791;52.392;13.092;2022-12-07T02:17:24;2.67;;;2.57;;
27303;SDS011;14791;52.392;13.092;2022-12-07T02:22:51;2.40;;;2.30;;
27303;SDS011;14791;52.392;13.092;2022-12-07T02:25:30;2.80;;;2.70;;
27303;SDS011;14791;52.392;13.092;2022-12-07T02:28:18;2.80;;;2.70;;
27303;SDS011;14791;52.392;13.092;2022-12-07T02:30:45;2.97;;;2.87;;
27303;SDS011;14791;52.392;13.092;2022-12-07T02:33:17;2.93;;;2.73;;
27303;SDS011;14791;52.392;13.092;2022-12-07T02:35:51;3.50;;;3.40;;
27303;SDS011;14791;52.392;13.092;2022-12-07T02:38:31;2.90;;;2.80;;
27303;SDS011;14791;52.392;13.092;2022-12-07T02:41:02;3.10;;;3.00;;
27303;SDS011;14791;52.392;13.092;2022-12-07T02:43:39;3.17;;;3.07;;
27303;SDS011;14791;52.392;13.092;2022-12-07T02:46:21;2.83;;;2.73;;
27303;SDS011;14791;52.392;13.092;2022-12-07T02:48:47;3.13;;;3.03;;
27303;SDS011;14791;52.392;13.092;2022-12-07T02:51:18;3.20;;;3.10;;
27303;SDS011;14791;52.392;13.092;2022-12-07T02:53:47;3.47;;;3.37;;
27303;SDS011;14791;52.392;13.092;2022-12-07T02:59:19;3.33;;;3.23;;
27303;SDS011;14791;52.392;13.092;2022-12-07T03:10:57;3.90;;;3.70;;
27303;SDS011;14791;52.392;13.092;2022-12-07T03:13:33;3.80;;;3.70;;
27303;SDS011;14791;52.392;13.092;2022-12-07T03:16:15;4.50;;;4.30;;
27303;SDS011;14791;52.392;13.092;2022-12-07T03:18:53;4.73;;;4.40;;
27303;SDS011;14791;52.392;13.092;2022-12-07T03:21:20;4.00;;;3.87;;
27303;SDS011;14791;52.392;13.092;2022-12-07T03:23:56;5.27;;;4.97;;
27303;SDS011;14791;52.392;13.092;2022-12-07T03:26:34;5.03;;;4.83;;
27303;SDS011;14791;52.392;13.092;2022-12-07T03:29:01;5.13;;;4.93;;
27303;SDS011;14791;52.392;13.092;2022-12-07T03:31:33;5.60;;;5.33;;
27303;SDS011;14791;52.392;13.092;2022-12-07T03:34:11;5.60;;;5.30;;
27303;SDS011;14791;52.392;13.092;2022-12-07T03:36:53;5.30;;;5.03;;
27303;SDS011;14791;52.392;13.092;2022-12-07T03:39:37;5.67;;;5.37;;
27303;SDS011;14791;52.392;13.092;2022-12-07T03:42:13;5.57;;;5.27;;
27303;SDS011;14791;52.392;13.092;2022-12-07T03:44:42;4.77;;;4.57;;
27303;SDS011;14791;52.392;13.092;2022-12-07T03:47:12;5.23;;;5.03;;
27303;SDS011;14791;52.392;13.092;2022-12-07T03:49:49;5.63;;;5.33;;
27303;SDS011;14791;52.392;13.092;2022-12-07T03:52:42;5.50;;;5.30;;
27303;SDS011;14791;52.392;13.092;2022-12-07T03:55:28;6.10;;;5.70;;
27303;SDS011;14791;52.392;13.092;2022-12-07T03:58:00;6.03;;;5.73;;
27303;SDS011;14791;52.392;13.092;2022-12-07T04:00:31;6.73;;;6.43;;
27303;SDS011;14791;52.392;13.092;2022-12-07T04:03:00;6.60;;;6.27;;
27303;SDS011;14791;52.392;13.092;2022-12-07T04:05:30;7.43;;;6.97;;
27303;SDS011;14791;52.392;13.092;2022-12-07T04:07:59;7.17;;;6.83;;
27303;SDS011;14791;52.392;13.092;2022-12-07T04:10:27;7.63;;;7.13;;
27303;SDS011;14791;52.392;13.092;2022-12-07T04:12:56;7.17;;;6.67;;
27303;SDS011;14791;52.392;13.092;2022-12-07T04:15:25;7.30;;;6.90;;
27303;SDS011;14791;52.392;13.092;2022-12-07T04:17:54;8.10;;;7.60;;
27303;SDS011;14791;52.392;13.092;2022-12-07T04:20:23;7.87;;;7.37;;
27303;SDS011;14791;52.392;13.092;2022-12-07T04:22:52;8.33;;;7.73;;
27303;SDS011;14791;52.392;13.092;2022-12-07T04:25:21;7.63;;;7.23;;
27303;SDS011;14791;52.392;13.092;2022-12-07T04:27:50;8.30;;;7.80;;
27303;SDS011;14791;52.392;13.092;2022-12-07T04:30:19;8.77;;;8.17;;
27303;SDS011;14791;52.392;13.092;2022-12-07T04:32:47;8.80;;;8.20;;
27303;SDS011;14791;52.392;13.092;2022-12-07T04:35:16;9.30;;;8.60;;
27303;SDS011;14791;52.392;13.092;2022-12-07T04:37:45;8.63;;;8.03;;
27303;SDS011;14791;52.392;13.092;2022-12-07T04:40:14;9.67;;;8.97;;
27303;SDS011;14791;52.392;13.092;2022-12-07T04:42:43;8.80;;;8.10;;
27303;SDS011;14791;52.392;13.092;2022-12-07T04:45:12;9.00;;;8.30;;
27303;SDS011;14791;52.392;13.092;2022-12-07T04:47:41;9.07;;;8.47;;
27303;SDS011;14791;52.392;13.092;2022-12-07T04:50:10;9.03;;;8.50;;
27303;SDS011;14791;52.392;13.092;2022-12-07T04:52:39;8.83;;;8.23;;
27303;SDS011;14791;52.392;13.092;2022-12-07T04:55:08;9.13;;;8.53;;
27303;SDS011;14791;52.392;13.092;2022-12-07T04:57:36;9.23;;;8.53;;
27303;SDS011;14791;52.392;13.092;2022-12-07T05:00:06;9.10;;;8.40;;
27303;SDS011;14791;52.392;13.092;2022-12-07T05:02:35;8.53;;;7.83;;
27303;SDS011;14791;52.392;13.092;2022-12-07T05:05:04;8.57;;;7.97;;
27303;SDS011;14791;52.392;13.092;2022-12-07T05:07:33;8.73;;;8.13;;
27303;SDS011;14791;52.392;13.092;2022-12-07T05:10:02;8.67;;;8.07;;
27303;SDS011;14791;52.392;13.092;2022-12-07T05:12:31;8.23;;;7.63;;
27303;SDS011;14791;52.392;13.092;2022-12-07T05:15:00;9.00;;;8.27;;
27303;SDS011;14791;52.392;13.092;2022-12-07T05:17:29;8.60;;;8.10;;
27303;SDS011;14791;52.392;13.092;2022-12-07T05:19:58;8.80;;;8.10;;
27303;SDS011;14791;52.392;13.092;2022-12-07T05:22:27;9.07;;;8.47;;
27303;SDS011;14791;52.392;13.092;2022-12-07T05:24:56;8.73;;;8.13;;
27303;SDS011;14791;52.392;13.092;2022-12-07T05:27:24;9.60;;;8.80;;
27303;SDS011;14791;52.392;13.092;2022-12-07T05:29:53;9.20;;;8.40;;
27303;SDS011;14791;52.392;13.092;2022-12-07T05:32:22;10.43;;;9.47;;
27303;SDS011;14791;52.392;13.092;2022-12-07T05:34:51;9.50;;;8.80;;
27303;SDS011;14791;52.392;13.092;2022-12-07T05:37:21;9.53;;;8.83;;
27303;SDS011;14791;52.392;13.092;2022-12-07T05:39:50;10.03;;;9.10;;
27303;SDS011;14791;52.392;13.092;2022-12-07T05:42:19;9.60;;;8.83;;
27303;SDS011;14791;52.392;13.092;2022-12-07T05:44:48;10.23;;;9.37;;
27303;SDS011;14791;52.392;13.092;2022-12-07T05:47:17;8.73;;;8.10;;
27303;SDS011;14791;52.392;13.092;2022-12-07T05:49:46;10.03;;;9.23;;
27303;SDS011;14791;52.392;13.092;2022-12-07T05:52:14;9.77;;;8.97;;
27303;SDS011;14791;52.392;13.092;2022-12-07T05:54:43;9.93;;;9.17;;
27303;SDS011;14791;52.392;13.092;2022-12-07T05:57:12;9.93;;;9.13;;
27303;SDS011;14791;52.392;13.092;2022-12-07T05:59:41;9.97;;;9.17;;
27303;SDS011;14791;52.392;13.092;2022-12-07T06:02:11;10.43;;;9.53;;
27303;SDS011;14791;52.392;13.092;2022-12-07T06:04:43;9.90;;;9.10;;
27303;SDS011;14791;52.392;13.092;2022-12-07T06:07:14;10.80;;;9.90;;
27303;SDS011;14791;52.392;13.092;2022-12-07T06:09:43;10.33;;;9.37;;
27303;SDS011;14791;52.392;13.092;2022-12-07T06:12:12;10.00;;;9.30;;
27303;SDS011;14791;52.392;13.092;2022-12-07T06:15:00;10.90;;;10.10;;
27303;SDS011;14791;52.392;13.092;2022-12-07T06:17:29;10.23;;;9.43;;
27303;SDS011;14791;52.392;13.092;2022-12-07T06:19:58;10.63;;;9.73;;
27303;SDS011;14791;52.392;13.092;2022-12-07T06:22:27;11.10;;;10.10;;
27303;SDS011;14791;52.392;13.092;2022-12-07T06:24:55;10.87;;;9.87;;
27303;SDS011;14791;52.392;13.092;2022-12-07T06:27:24;9.77;;;8.90;;
27303;SDS011;14791;52.392;13.092;2022-12-07T06:29:53;10.13;;;9.43;;
27303;SDS011;14791;52.392;13.092;2022-12-07T06:32:22;10.80;;;9.93;;
27303;SDS011;14791;52.392;13.092;2022-12-07T06:34:51;11.67;;;10.63;;
27303;SDS011;14791;52.392;13.092;2022-12-07T06:37:20;10.50;;;9.73;;
27303;SDS011;14791;52.392;13.092;2022-12-07T06:39:49;10.77;;;9.87;;
27303;SDS011;14791;52.392;13.092;2022-12-07T06:42:17;11.00;;;10.10;;
27303;SDS011;14791;52.392;13.092;2022-12-07T06:44:46;11.60;;;10.50;;
27303;SDS011;14791;52.392;13.092;2022-12-07T06:47:16;10.63;;;9.63;;
27303;SDS011;14791;52.392;13.092;2022-12-07T06:49:45;10.50;;;9.70;;
27303;SDS011;14791;52.392;13.092;2022-12-07T06:52:13;10.30;;;9.37;;
27303;SDS011;14791;52.392;13.092;2022-12-07T06:54:42;9.40;;;8.60;;
27303;SDS011;14791;52.392;13.092;2022-12-07T06:57:12;10.63;;;9.53;;
27303;SDS011;14791;52.392;13.092;2022-12-07T06:59:40;10.13;;;9.33;;
27303;SDS011;14791;52.392;13.092;2022-12-07T07:02:09;10.10;;;9.37;;
27303;SDS011;14791;52.392;13.092;2022-12-07T07:04:38;10.67;;;9.57;;
27303;SDS011;14791;52.392;13.092;2022-12-07T07:07:07;10.10;;;9.43;;
27303;SDS011;14791;52.392;13.092;2022-12-07T07:09:36;10.23;;;9.43;;
27303;SDS011;14791;52.392;13.092;2022-12-07T07:12:05;9.93;;;9.13;;
27303;SDS011;14791;52.392;13.092;2022-12-07T07:14:33;10.47;;;9.67;;
27303;SDS011;14791;52.392;13.092;2022-12-07T07:17:03;10.20;;;9.40;;
27303;SDS011;14791;52.392;13.092;2022-12-07T07:19:32;9.43;;;8.80;;
27303;SDS011;14791;52.392;13.092;2022-12-07T07:22:01;9.63;;;8.83;;
27303;SDS011;14791;52.392;13.092;2022-12-07T07:24:30;9.97;;;9.17;;
27303;SDS011;14791;52.392;13.092;2022-12-07T07:26:59;8.90;;;8.30;;
27303;SDS011;14791;52.392;13.092;2022-12-07T07:29:28;9.37;;;8.70;;
27303;SDS011;14791;52.392;13.092;2022-12-07T07:31:57;8.53;;;8.07;;
27303;SDS011;14791;52.392;13.092;2022-12-07T07:34:28;9.27;;;8.50;;
27303;SDS011;14791;52.392;13.092;2022-12-07T07:36:56;8.67;;;8.07;;
27303;SDS011;14791;52.392;13.092;2022-12-07T07:39:25;8.20;;;7.70;;
27303;SDS011;14791;52.392;13.092;2022-12-07T07:41:54;8.30;;;7.67;;
27303;SDS011;14791;52.392;13.092;2022-12-07T07:44:24;8.37;;;7.67;;
27303;SDS011;14791;52.392;13.092;2022-12-07T07:46:53;7.97;;;7.37;;
27303;SDS011;14791;52.392;13.092;2022-12-07T07:49:22;7.60;;;7.10;;
27303;SDS011;14791;52.392;13.092;2022-12-07T07:51:51;8.10;;;7.50;;
27303;SDS011;14791;52.392;13.092;2022-12-07T07:54:20;8.37;;;7.77;;
27303;SDS011;14791;52.392;13.092;2022-12-07T07:56:49;7.53;;;6.97;;
27303;SDS011;14791;52.392;13.092;2022-12-07T07:59:19;8.87;;;7.87;;
27303;SDS011;14791;52.392;13.092;2022-12-07T08:01:48;7.30;;;6.80;;
27303;SDS011;14791;52.392;13.092;2022-12-07T08:04:17;7.53;;;6.93;;
27303;SDS011;14791;52.392;13.092;2022-12-07T08:06:46;7.40;;;6.93;;
27303;SDS011;14791;52.392;13.092;2022-12-07T08:09:15;6.87;;;6.47;;
27303;SDS011;14791;52.392;13.092;2022-12-07T08:11:44;7.23;;;6.83;;
27303;SDS011;14791;52.392;13.092;2022-12-07T08:14:12;6.93;;;6.37;;
27303;SDS011;14791;52.392;13.092;2022-12-07T08:16:41;6.17;;;5.87;;
27303;SDS011;14791;52.392;13.092;2022-12-07T08:19:10;5.70;;;5.40;;
27303;SDS011;14791;52.392;13.092;2022-12-07T08:21:39;5.13;;;4.73;;
27303;SDS011;14791;52.392;13.092;2022-12-07T08:24:08;4.87;;;4.57;;
27303;SDS011;14791;52.392;13.092;2022-12-07T08:26:37;4.43;;;4.23;;
27303;SDS011;14791;52.392;13.092;2022-12-07T08:29:06;4.10;;;3.90;;
27303;SDS011;14791;52.392;13.092;2022-12-07T08:31:35;3.63;;;3.43;;
27303;SDS011;14791;52.392;13.092;2022-12-07T08:34:04;3.63;;;3.53;;
27303;SDS011;14791;52.392;13.092;2022-12-07T08:36:33;3.57;;;3.37;;
27303;SDS011;14791;52.392;13.092;2022-12-07T08:39:03;2.70;;;2.50;;
27303;SDS011;14791;52.392;13.092;2022-12-07T08:41:33;2.20;;;2.10;;
27303;SDS011;14791;52.392;13.092;2022-12-07T08:44:02;2.27;;;2.03;;
27303;SDS011;14791;52.392;13.092;2022-12-07T08:46:45;1.93;;;1.93;;
27303;SDS011;14791;52.392;13.092;2022-12-07T08:49:17;1.70;;;1.70;;
27303;SDS011;14791;52.392;13.092;2022-12-07T08:51:49;1.80;;;1.70;;
27303;SDS011;14791;52.392;13.092;2022-12-07T08:54:19;1.60;;;1.50;;
27303;SDS011;14791;52.392;13.092;2022-12-07T08:56:49;1.70;;;1.60;;
27303;SDS011;14791;52.392;13.092;2022-12-07T08:59:19;1.80;;;1.80;;
27303;SDS011;14791;52.392;13.092;2022-12-07T09:01:49;2.00;;;1.90;;
27303;SDS011;14791;52.392;13.092;2022-12-07T09:04:18;1.67;;;1.67;;
27303;SDS011;14791;52.392;13.092;2022-12-07T09:06:47;1.70;;;1.70;;
27303;SDS011;14791;52.392;13.092;2022-12-07T09:09:16;2.00;;;2.00;;
27303;SDS011;14791;52.392;13.092;2022-12-07T09:11:46;1.70;;;1.60;;
27303;SDS011;14791;52.392;13.092;2022-12-07T09:14:15;1.63;;;1.53;;
27303;SDS011;14791;52.392;13.092;2022-12-07T09:16:44;1.43;;;1.43;;
27303;SDS011;14791;52.392;13.092;2022-12-07T09:19:13;1.40;;;1.40;;
27303;SDS011;14791;52.392;13.092;2022-12-07T09:21:42;1.87;;;1.77;;
27303;SDS011;14791;52.392;13.092;2022-12-07T09:24:11;1.70;;;1.70;;
27303;SDS011;14791;52.392;13.092;2022-12-07T09:26:41;2.60;;;1.90;;
27303;SDS011;14791;52.392;13.092;2022-12-07T09:29:11;1.50;;;1.40;;
27303;SDS011;14791;52.392;13.092;2022-12-07T09:31:40;1.70;;;1.70;;
27303;SDS011;14791;52.392;13.092;2022-12-07T09:34:09;2.00;;;1.90;;
27303;SDS011;14791;52.392;13.092;2022-12-07T09:36:38;2.03;;;1.93;;
27303;SDS011;14791;52.392;13.092;2022-12-07T09:39:07;2.03;;;2.00;;
27303;SDS011;14791;52.392;13.092;2022-12-07T09:41:39;1.90;;;1.90;;
27303;SDS011;14791;52.392;13.092;2022-12-07T09:44:11;1.70;;;1.70;;
27303;SDS011;14791;52.392;13.092;2022-12-07T09:46:42;1.77;;;1.67;;
27303;SDS011;14791;52.392;13.092;2022-12-07T09:49:14;1.67;;;1.57;;
27303;SDS011;14791;52.392;13.092;2022-12-07T09:51:44;1.83;;;1.83;;
27303;SDS011;14791;52.392;13.092;2022-12-07T09:54:14;1.70;;;1.70;;
27303;SDS011;14791;52.392;13.092;2022-12-07T09:56:44;2.23;;;2.23;;
27303;SDS011;14791;52.392;13.092;2022-12-07T09:59:15;2.10;;;2.10;;
27303;SDS011;14791;52.392;13.092;2022-12-07T10:01:51;2.33;;;2.20;;
27303;SDS011;14791;52.392;13.092;2022-12-07T10:04:17;1.80;;;1.80;;
27303;SDS011;14791;52.392;13.092;2022-12-07T10:06:51;1.80;;;1.73;;
27303;SDS011;14791;52.392;13.092;2022-12-07T10:09:21;2.27;;;2.17;;
27303;SDS011;14791;52.392;13.092;2022-12-07T10:11:58;2.20;;;2.10;;
27303;SDS011;14791;52.392;13.092;2022-12-07T10:14:29;2.10;;;2.00;;
27303;SDS011;14791;52.392;13.092;2022-12-07T10:17:00;2.10;;;2.10;;
27303;SDS011;14791;52.392;13.092;2022-12-07T10:19:30;2.57;;;1.93;;
27303;SDS011;14791;52.392;13.092;2022-12-07T10:22:14;2.17;;;2.03;;
27303;SDS011;14791;52.392;13.092;2022-12-07T10:24:42;1.83;;;1.83;;
27303;SDS011;14791;52.392;13.092;2022-12-07T10:27:19;2.23;;;2.13;;
27303;SDS011;14791;52.392;13.092;2022-12-07T10:29:51;1.80;;;1.70;;
27303;SDS011;14791;52.392;13.092;2022-12-07T10:32:27;2.17;;;2.07;;
27303;SDS011;14791;52.392;13.092;2022-12-07T10:35:36;2.07;;;2.07;;
27303;SDS011;14791;52.392;13.092;2022-12-07T10:37:49;1.90;;;1.70;;
27303;SDS011;14791;52.392;13.092;2022-12-07T10:40:32;1.57;;;1.57;;
27303;SDS011;14791;52.392;13.092;2022-12-07T10:51:27;2.00;;;1.80;;
27303;SDS011;14791;52.392;13.092;2022-12-07T10:54:10;2.20;;;2.00;;
27303;SDS011;14791;52.392;13.092;2022-12-07T11:02:35;1.50;;;1.50;;
27303;SDS011;14791;52.392;13.092;2022-12-07T11:05:17;1.60;;;1.60;;
27303;SDS011;14791;52.392;13.092;2022-12-07T11:08:02;1.50;;;1.50;;
27303;SDS011;14791;52.392;13.092;2022-12-07T11:10:38;1.70;;;1.60;;
27303;SDS011;14791;52.392;13.092;2022-12-07T11:13:26;1.90;;;1.80;;
27303;SDS011;14791;52.392;13.092;2022-12-07T11:21:39;1.60;;;1.50;;
27303;SDS011;14791;52.392;13.092;2022-12-07T11:38:07;1.70;;;1.70;;
27303;SDS011;14791;52.392;13.092;2022-12-07T11:40:36;2.00;;;1.90;;
27303;SDS011;14791;52.392;13.092;2022-12-07T11:48:37;2.67;;;1.77;;
27303;SDS011;14791;52.392;13.092;2022-12-07T11:51:13;2.00;;;1.90;;
27303;SDS011;14791;52.392;13.092;2022-12-07T11:53:49;2.03;;;1.93;;
27303;SDS011;14791;52.392;13.092;2022-12-07T11:56:21;1.30;;;1.30;;
27303;SDS011;14791;52.392;13.092;2022-12-07T12:01:50;1.70;;;1.63;;
27303;SDS011;14791;52.392;13.092;2022-12-07T12:04:42;1.80;;;1.70;;
27303;SDS011;14791;52.392;13.092;2022-12-07T12:07:21;1.63;;;1.57;;
27303;SDS011;14791;52.392;13.092;2022-12-07T12:09:54;1.80;;;1.70;;
27303;SDS011;14791;52.392;13.092;2022-12-07T12:18:22;2.13;;;1.50;;
27303;SDS011;14791;52.392;13.092;2022-12-07T12:21:09;2.10;;;1.20;;
27303;SDS011;14791;52.392;13.092;2022-12-07T12:24:05;1.40;;;1.30;;
27303;SDS011;14791;52.392;13.092;2022-12-07T12:26:17;1.00;;;1.00;;
27303;SDS011;14791;52.392;13.092;2022-12-07T12:31:33;1.53;;;1.43;;
27303;SDS011;14791;52.392;13.092;2022-12-07T12:34:10;2.93;;;1.50;;
27303;SDS011;14791;52.392;13.092;2022-12-07T12:36:52;2.43;;;1.40;;
27303;SDS011;14791;52.392;13.092;2022-12-07T12:39:22;1.30;;;1.20;;
27303;SDS011;14791;52.392;13.092;2022-12-07T12:41:53;2.90;;;1.30;;
27303;SDS011;14791;52.392;13.092;2022-12-07T12:47:03;2.63;;;1.77;;
27303;SDS011;14791;52.392;13.092;2022-12-07T12:49:38;2.40;;;1.57;;
27303;SDS011;14791;52.392;13.092;2022-12-07T12:54:58;1.90;;;1.70;;
27303;SDS011;14791;52.392;13.092;2022-12-07T12:57:30;1.50;;;1.40;;
27303;SDS011;14791;52.392;13.092;2022-12-07T13:00:00;1.60;;;1.50;;
27303;SDS011;14791;52.392;13.092;2022-12-07T13:02:51;1.60;;;1.50;;
27303;SDS011;14791;52.392;13.092;2022-12-07T13:05:23;1.60;;;1.10;;
27303;SDS011;14791;52.392;13.092;2022-12-07T13:10:49;1.80;;;1.47;;
27303;SDS011;14791;52.392;13.092;2022-12-07T13:15:51;1.23;;;1.20;;
27303;SDS011;14791;52.392;13.092;2022-12-07T13:18:35;0.90;;;0.90;;
27303;SDS011;14791;52.392;13.092;2022-12-07T13:26:20;1.27;;;1.23;;
27303;SDS011;14791;52.392;13.092;2022-12-07T13:34:35;1.33;;;1.33;;
27303;SDS011;14791;52.392;13.092;2022-12-07T13:42:25;1.37;;;1.27;;
27303;SDS011;14791;52.392;13.092;2022-12-07T13:44:56;2.00;;;1.33;;
27303;SDS011;14791;52.392;13.092;2022-12-07T13:50:02;1.87;;;1.60;;
27303;SDS011;14791;52.392;13.092;2022-12-07T13:52:33;2.20;;;1.63;;
27303;SDS011;14791;52.392;13.092;2022-12-07T13:55:13;1.70;;;1.27;;
27303;SDS011;14791;52.392;13.092;2022-12-07T13:57:47;2.40;;;1.50;;
27303;SDS011;14791;52.392;13.092;2022-12-07T14:03:02;1.37;;;1.13;;
27303;SDS011;14791;52.392;13.092;2022-12-07T14:05:43;1.47;;;1.40;;
27303;SDS011;14791;52.392;13.092;2022-12-07T14:13:27;1.53;;;1.47;;
27303;SDS011;14791;52.392;13.092;2022-12-07T14:16:05;2.07;;;1.20;;
27303;SDS011;14791;52.392;13.092;2022-12-07T14:18:39;1.30;;;1.20;;
27303;SDS011;14791;52.392;13.092;2022-12-07T14:24:08;1.57;;;1.40;;
27303;SDS011;14791;52.392;13.092;2022-12-07T14:26:42;1.50;;;1.40;;
27303;SDS011;14791;52.392;13.092;2022-12-07T14:32:25;1.30;;;1.30;;
27303;SDS011;14791;52.392;13.092;2022-12-07T14:34:54;2.33;;;1.67;;
27303;SDS011;14791;52.392;13.092;2022-12-07T14:37:24;1.60;;;1.40;;
27303;SDS011;14791;52.392;13.092;2022-12-07T14:39:54;1.87;;;1.80;;
27303;SDS011;14791;52.392;13.092;2022-12-07T14:42:24;3.83;;;1.40;;
27303;SDS011;14791;52.392;13.092;2022-12-07T14:44:55;1.53;;;1.53;;
27303;SDS011;14791;52.392;13.092;2022-12-07T14:47:25;2.87;;;1.50;;
27303;SDS011;14791;52.392;13.092;2022-12-07T14:49:55;1.40;;;1.20;;
27303;SDS011;14791;52.392;13.092;2022-12-07T14:52:27;1.93;;;1.50;;
27303;SDS011;14791;52.392;13.092;2022-12-07T14:54:57;2.77;;;1.30;;
27303;SDS011;14791;52.392;13.092;2022-12-07T14:57:26;1.10;;;1.10;;
27303;SDS011;14791;52.392;13.092;2022-12-07T14:59:55;2.53;;;1.30;;
27303;SDS011;14791;52.392;13.092;2022-12-07T15:02:24;2.63;;;1.30;;
27303;SDS011;14791;52.392;13.092;2022-12-07T15:04:53;1.30;;;1.30;;
27303;SDS011;14791;52.392;13.092;2022-12-07T15:07:22;2.13;;;1.40;;
27303;SDS011;14791;52.392;13.092;2022-12-07T15:09:52;2.30;;;1.43;;
27303;SDS011;14791;52.392;13.092;2022-12-07T15:12:22;1.70;;;1.70;;
27303;SDS011;14791;52.392;13.092;2022-12-07T15:14:51;1.43;;;1.33;;
27303;SDS011;14791;52.392;13.092;2022-12-07T15:17:20;2.67;;;1.57;;
27303;SDS011;14791;52.392;13.092;2022-12-07T15:19:49;2.33;;;1.27;;
27303;SDS011;14791;52.392;13.092;2022-12-07T15:22:18;2.20;;;1.50;;
27303;SDS011;14791;52.392;13.092;2022-12-07T15:24:47;1.37;;;1.37;;
27303;SDS011;14791;52.392;13.092;2022-12-07T15:27:16;2.30;;;1.13;;
27303;SDS011;14791;52.392;13.092;2022-12-07T15:29:44;2.37;;;1.53;;
27303;SDS011;14791;52.392;13.092;2022-12-07T15:32:14;2.23;;;1.43;;
27303;SDS011;14791;52.392;13.092;2022-12-07T15:34:43;1.57;;;1.40;;
27303;SDS011;14791;52.392;13.092;2022-12-07T15:37:12;1.70;;;1.40;;
27303;SDS011;14791;52.392;13.092;2022-12-07T15:39:40;1.97;;;1.30;;
27303;SDS011;14791;52.392;13.092;2022-12-07T15:42:09;1.37;;;1.27;;
27303;SDS011;14791;52.392;13.092;2022-12-07T15:44:38;1.47;;;1.43;;
27303;SDS011;14791;52.392;13.092;2022-12-07T15:47:25;3.07;;;1.33;;
27303;SDS011;14791;52.392;13.092;2022-12-07T15:49:54;1.77;;;1.40;;
27303;SDS011;14791;52.392;13.092;2022-12-07T15:52:23;1.57;;;1.40;;
27303;SDS011;14791;52.392;13.092;2022-12-07T15:54:52;2.50;;;1.60;;
27303;SDS011;14791;52.392;13.092;2022-12-07T15:57:21;1.30;;;1.30;;
27303;SDS011;14791;52.392;13.092;2022-12-07T15:59:50;2.57;;;1.33;;
27303;SDS011;14791;52.392;13.092;2022-12-07T16:02:19;1.60;;;1.47;;
27303;SDS011;14791;52.392;13.092;2022-12-07T16:04:49;1.53;;;1.20;;
27303;SDS011;14791;52.392;13.092;2022-12-07T16:07:19;1.60;;;1.50;;
27303;SDS011;14791;52.392;13.092;2022-12-07T16:09:49;1.23;;;1.20;;
27303;SDS011;14791;52.392;13.092;2022-12-07T16:12:18;2.53;;;1.37;;
27303;SDS011;14791;52.392;13.092;2022-12-07T16:14:46;1.20;;;1.20;;
27303;SDS011;14791;52.392;13.092;2022-12-07T16:17:15;1.77;;;1.67;;
27303;SDS011;14791;52.392;13.092;2022-12-07T16:19:44;1.70;;;1.60;;
27303;SDS011;14791;52.392;13.092;2022-12-07T16:22:13;2.97;;;1.60;;
27303;SDS011;14791;52.392;13.092;2022-12-07T16:24:42;2.40;;;1.50;;
27303;SDS011;14791;52.392;13.092;2022-12-07T16:27:11;1.00;;;1.00;;
27303;SDS011;14791;52.392;13.092;2022-12-07T16:29:40;2.47;;;1.87;;
27303;SDS011;14791;52.392;13.092;2022-12-07T16:32:09;2.23;;;1.73;;
27303;SDS011;14791;52.392;13.092;2022-12-07T16:34:39;1.47;;;1.40;;
27303;SDS011;14791;52.392;13.092;2022-12-07T16:37:08;2.93;;;1.20;;
27303;SDS011;14791;52.392;13.092;2022-12-07T16:39:37;2.73;;;1.30;;
27303;SDS011;14791;52.392;13.092;2022-12-07T16:42:06;3.00;;;1.77;;
27303;SDS011;14791;52.392;13.092;2022-12-07T16:44:35;1.27;;;1.27;;
27303;SDS011;14791;52.392;13.092;2022-12-07T16:47:03;1.20;;;1.20;;
27303;SDS011;14791;52.392;13.092;2022-12-07T16:49:32;1.80;;;1.70;;
27303;SDS011;14791;52.392;13.092;2022-12-07T16:52:01;1.50;;;1.40;;